Fuat Reis I — TCVN9 — position and weather

sailwx.info

Track history (hours):
 
Tides and Currents Weather Stations Pressure Air Temp Water Temp Dewpoint Dewpoint Depression Visibility Wind Speed Wind Dir Waves Ship Positions

Fuat Reis I

Last reported at 2017-Dec-02 08:46 UTC. Time now 2017-Dec-14 08:16 UTC.
Position N 36°37' E 030°37'.
Warning: this ship's position is 11 days out of date.

Type: Fishing. MMSI: 271073040.

Date/timePositionNaut miles runAvg speedWind from/ knotsBaromVisibWave heightAir tempDewpointWater temp
2017-Dec-02 08:46N 36°37' E 030°37'0 1.1
2017-Dec-02 08:30N 36°38' E 030°37'1 2.1
2017-Dec-02 08:00N 36°38' E 030°36'1 2.3
2017-Dec-02 07:30N 36°39' E 030°36'2 3.5
2017-Dec-02 07:00N 36°41' E 030°37'4 7.8
2017-Dec-02 06:30N 36°45' E 030°36'3 6.5
2017-Dec-02 06:00N 36°48' E 030°35'9 0.6
2017-Dec-01 14:52N 36°46' E 030°46'1 2.3
2017-Dec-01 14:30N 36°45' E 030°46'2 3.4
2017-Dec-01 13:58N 36°43' E 030°45'1 1.3
2017-Dec-01 13:29N 36°43' E 030°46'0 0.6
2017-Dec-01 13:00N 36°43' E 030°46'1 2.0
2017-Dec-01 12:30N 36°44' E 030°46'1 2.1
2017-Dec-01 12:00N 36°45' E 030°45'1 2.2
2017-Dec-01 11:31N 36°46' E 030°45'1 2.2
2017-Dec-01 11:00N 36°47' E 030°46'1 2.2
2017-Dec-01 10:30N 36°47' E 030°47'2 3.0
2017-Dec-01 09:59N 36°49' E 030°48'1 1.8
2017-Dec-01 09:30N 36°48' E 030°47'0 0.8
2017-Dec-01 09:00N 36°48' E 030°47'1 2.1
2017-Dec-01 08:30N 36°47' E 030°47'1 2.2
2017-Dec-01 07:59N 36°46' E 030°47'1 2.2
2017-Dec-01 07:30N 36°45' E 030°47'1 3.0
2017-Dec-01 07:00N 36°44' E 030°47'0 0.6
2017-Dec-01 06:30N 36°43' E 030°47'0 0.5
2017-Dec-01 06:00N 36°44' E 030°47'1 2.2
2017-Dec-01 05:29N 36°45' E 030°47'1 2.2
2017-Dec-01 05:00N 36°46' E 030°47'1 2.1
2017-Dec-01 04:30N 36°47' E 030°47'2 3.5
2017-Dec-01 04:00N 36°49' E 030°47'4 7.3
2017-Dec-01 03:30N 36°49' E 030°42'4 8.0
2017-Dec-01 03:00N 36°49' E 030°37'2 4.2
2017-Dec-01 02:28N 36°48' E 030°35'0 0.0
2017-Dec-01 01:58N 36°48' E 030°35'0 0.0
2017-Dec-01 01:28N 36°48' E 030°35'0 0.0
2017-Dec-01 00:58N 36°48' E 030°35'0 0.0
2017-Dec-01 00:28N 36°48' E 030°35'0 0.0
2017-Nov-30 23:58N 36°48' E 030°35'0 0.0
2017-Nov-30 23:28N 36°48' E 030°35'0 0.0
2017-Nov-30 22:58N 36°48' E 030°35'0 0.0
2017-Nov-30 22:28N 36°48' E 030°35'0 0.0
2017-Nov-30 21:55N 36°48' E 030°35'0 0.0
2017-Nov-30 21:28N 36°48' E 030°35'0 0.0
2017-Nov-30 20:58N 36°48' E 030°35'0 0.0
2017-Nov-30 20:25N 36°48' E 030°35'0 0.0
2017-Nov-30 19:58N 36°48' E 030°35'0 0.0
2017-Nov-30 19:25N 36°48' E 030°35'0 0.0
2017-Nov-30 18:58N 36°48' E 030°35'0 0.2
2017-Nov-30 18:30N 36°48' E 030°35'4 7.8
2017-Nov-30 18:00N 36°47' E 030°39'4 8.3
2017-Nov-30 17:30N 36°45' E 030°44'2 4.8
2017-Nov-30 17:00N 36°47' E 030°46'0 0.4
2017-Nov-30 16:30N 36°47' E 030°47'1 2.3
2017-Nov-30 16:00N 36°48' E 030°47'0 0.6
2017-Nov-30 15:30N 36°48' E 030°48'1 1.2
2017-Nov-30 15:00N 36°48' E 030°47'1 2.1
2017-Nov-30 14:30N 36°47' E 030°46'1 2.0
2017-Nov-30 14:00N 36°47' E 030°45'1 2.3
2017-Nov-30 13:30N 36°46' E 030°44'1 2.1
2017-Nov-30 13:00N 36°45' E 030°45'1 2.2
2017-Nov-30 12:30N 36°44' E 030°46'2 3.3
2017-Nov-30 11:56N 36°43' E 030°48'1 3.1
2017-Nov-30 11:30N 36°43' E 030°46'0 0.7
2017-Nov-30 11:00N 36°43' E 030°47'1 2.1
2017-Nov-30 10:30N 36°44' E 030°46'1 2.0
2017-Nov-30 10:00N 36°44' E 030°44'1 1.9
2017-Nov-30 09:30N 36°45' E 030°44'1 2.2
2017-Nov-30 09:00N 36°46' E 030°44'1 2.2
2017-Nov-30 08:30N 36°47' E 030°45'1 2.6
2017-Nov-30 08:00N 36°48' E 030°46'1 2.1
2017-Nov-30 07:30N 36°48' E 030°47'1 2.8
2017-Nov-30 06:59N 36°47' E 030°49'2 4.5
2017-Nov-30 06:30N 36°47' E 030°47'0 0.4
2017-Nov-30 06:00N 36°47' E 030°47'1 2.4
2017-Nov-30 05:30N 36°48' E 030°48'1 2.7
2017-Nov-30 05:00N 36°48' E 030°50'1 2.3
2017-Nov-30 04:30N 36°48' E 030°51'1 2.3
2017-Nov-30 04:00N 36°49' E 030°52'1 2.3
2017-Nov-30 03:30N 36°48' E 030°54'1 2.3
2017-Nov-30 02:58N 36°48' E 030°55'1 2.3
2017-Nov-30 02:29N 36°48' E 030°57'18 0.5
2017-Nov-28 16:21N 36°48' E 030°35'0 0.0
2017-Nov-28 15:45N 36°48' E 030°35'0 0.0
2017-Nov-28 15:00N 36°48' E 030°35'0 0.0
2017-Nov-28 14:30N 36°48' E 030°35'0 0.0
2017-Nov-28 13:57N 36°48' E 030°35'0 0.0
2017-Nov-28 13:30N 36°48' E 030°35'0 0.0
2017-Nov-28 13:00N 36°48' E 030°35'0 0.0
2017-Nov-28 12:30N 36°48' E 030°35'0 0.0
2017-Nov-28 12:00N 36°48' E 030°35'0 0.0
2017-Nov-28 11:30N 36°48' E 030°35'0 0.0
2017-Nov-28 11:00N 36°48' E 030°35'0 0.0
2017-Nov-28 10:30N 36°48' E 030°35'0 0.0
2017-Nov-28 10:00N 36°48' E 030°35'0 0.0
2017-Nov-28 09:27N 36°48' E 030°35'0 0.0
2017-Nov-28 08:54N 36°48' E 030°35'0 0.0
2017-Nov-28 08:30N 36°48' E 030°35'0 0.0
2017-Nov-28 08:00N 36°48' E 030°35'0 0.0
2017-Nov-28 07:30N 36°48' E 030°35'0 0.0
2017-Nov-28 06:54N 36°48' E 030°35'0 0.0
2017-Nov-28 06:30N 36°48' E 030°35'0 0.0
2017-Nov-28 05:54N 36°48' E 030°35'0 0.0
2017-Nov-28 05:30N 36°48' E 030°35'0 0.0
2017-Nov-28 04:30N 36°48' E 030°35'0 0.0
2017-Nov-28 04:00N 36°48' E 030°35'0 0.0
2017-Nov-28 03:30N 36°48' E 030°35'0 0.0
2017-Nov-28 03:00N 36°48' E 030°35'0 0.0
2017-Nov-28 02:30N 36°48' E 030°35'0 0.0
2017-Nov-28 01:57N 36°48' E 030°35'0 0.0
2017-Nov-28 01:27N 36°48' E 030°35'0 0.0
2017-Nov-28 01:00N 36°48' E 030°35'0 0.0
2017-Nov-28 00:27N 36°48' E 030°35'0 0.0
2017-Nov-28 00:00N 36°48' E 030°35'0 0.0
2017-Nov-27 23:30N 36°48' E 030°35'0 0.0
2017-Nov-27 23:00N 36°48' E 030°35'0 0.0
2017-Nov-27 22:30N 36°48' E 030°35'0 0.0
2017-Nov-27 21:54N 36°48' E 030°35'0 0.0
2017-Nov-27 21:27N 36°48' E 030°35'0 0.0
2017-Nov-27 21:00N 36°48' E 030°35'0 0.0
2017-Nov-27 20:24N 36°48' E 030°35'0 0.0
2017-Nov-27 20:00N 36°48' E 030°35'0 0.0
2017-Nov-27 19:27N 36°48' E 030°35'0 0.0
2017-Nov-27 18:57N 36°48' E 030°35'0 0.0
2017-Nov-27 18:27N 36°48' E 030°35'13 0.3
2017-Nov-25 15:04N 36°47' E 030°51'0 2.5
2017-Nov-25 14:54N 36°48' E 030°51'1 2.5
2017-Nov-25 14:30N 36°48' E 030°50'2 3.9
2017-Nov-25 14:00N 36°47' E 030°47'2 3.2
2017-Nov-25 13:30N 36°47' E 030°46'0 0.7
2017-Nov-25 13:00N 36°47' E 030°45'1 1.2
2017-Nov-25 12:30N 36°47' E 030°44'1 1.9
2017-Nov-25 12:00N 36°46' E 030°44'1 2.1
2017-Nov-25 11:30N 36°45' E 030°45'1 2.1
2017-Nov-25 11:00N 36°44' E 030°46'2 3.4
2017-Nov-25 10:16N 36°43' E 030°48'0 0.7
2017-Nov-25 10:00N 36°43' E 030°48'1 1.1
2017-Nov-25 09:30N 36°43' E 030°47'1 2.2
2017-Nov-25 09:00N 36°44' E 030°46'1 2.2
2017-Nov-25 08:30N 36°44' E 030°45'1 2.2
2017-Nov-25 08:00N 36°45' E 030°44'1 2.2
2017-Nov-25 07:30N 36°46' E 030°45'1 2.2
2017-Nov-25 07:00N 36°47' E 030°46'1 2.9
2017-Nov-25 06:30N 36°48' E 030°46'1 2.8
2017-Nov-25 06:00N 36°48' E 030°45'4 8.2
2017-Nov-25 05:30N 36°49' E 030°39'4 7.7
2017-Nov-25 05:00N 36°48' E 030°35'0 0.0
2017-Nov-25 04:30N 36°48' E 030°35'0 0.0
2017-Nov-25 04:00N 36°48' E 030°35'0 0.0
2017-Nov-25 03:30N 36°48' E 030°35'0 0.0
2017-Nov-25 03:00N 36°48' E 030°35'0 0.0
2017-Nov-25 02:30N 36°48' E 030°35'0 0.0
2017-Nov-25 02:00N 36°48' E 030°35'0 0.0
2017-Nov-25 01:30N 36°48' E 030°35'0 0.0
2017-Nov-25 01:00N 36°48' E 030°35'0 0.0
2017-Nov-25 00:30N 36°48' E 030°35'0 0.0
2017-Nov-25 00:00N 36°48' E 030°35'0 0.0
2017-Nov-24 23:30N 36°48' E 030°35'3 6.5
2017-Nov-24 23:00N 36°48' E 030°39'4 7.1
2017-Nov-24 22:30N 36°48' E 030°43'4 7.0
2017-Nov-24 22:00N 36°48' E 030°48'1 1.5
2017-Nov-24 21:30N 36°48' E 030°48'1 2.6
2017-Nov-24 21:00N 36°49' E 030°50'1 2.6
2017-Nov-24 20:30N 36°49' E 030°52'1 2.5
2017-Nov-24 20:00N 36°49' E 030°53'1 2.5
2017-Nov-24 19:30N 36°49' E 030°55'1 2.5
2017-Nov-24 18:54N 36°48' E 030°57'1 0.5
2017-Nov-24 16:05N 36°48' E 030°58'0 2.6
2017-Nov-24 16:00N 36°48' E 030°58'2 2.3
2017-Nov-24 14:57N 36°47' E 030°55'2 2.6
2017-Nov-24 14:20N 36°47' E 030°53'1 2.6
2017-Nov-24 14:00N 36°47' E 030°52'1 2.6
2017-Nov-24 13:30N 36°47' E 030°50'1 2.5
2017-Nov-24 13:00N 36°48' E 030°49'1 2.7
2017-Nov-24 12:30N 36°48' E 030°47'0 0.3
2017-Nov-24 12:00N 36°48' E 030°47'1 1.9
2017-Nov-24 11:30N 36°47' E 030°47'1 2.1
2017-Nov-24 11:00N 36°47' E 030°45'1 2.3
2017-Nov-24 10:30N 36°46' E 030°44'1 2.1
2017-Nov-24 10:00N 36°45' E 030°45'1 2.1
2017-Nov-24 09:31N 36°44' E 030°46'2 3.7
2017-Nov-24 08:57N 36°43' E 030°48'1 2.4
2017-Nov-24 08:30N 36°43' E 030°46'1 1.1
2017-Nov-24 08:00N 36°43' E 030°47'1 2.0
2017-Nov-24 07:29N 36°44' E 030°46'1 2.2
2017-Nov-24 07:00N 36°44' E 030°45'1 2.2
2017-Nov-24 06:30N 36°45' E 030°45'1 2.3
2017-Nov-24 06:00N 36°46' E 030°45'1 2.2
2017-Nov-24 05:30N 36°47' E 030°46'1 2.5
2017-Nov-24 05:00N 36°49' E 030°46'4 8.0
2017-Nov-24 04:30N 36°48' E 030°41'4 7.9
2017-Nov-24 04:00N 36°48' E 030°36'1 2.3
2017-Nov-24 03:29N 36°48' E 030°35'0 0.0
2017-Nov-24 02:59N 36°48' E 030°35'0 0.0
2017-Nov-24 02:29N 36°48' E 030°35'0 0.0
2017-Nov-24 02:00N 36°48' E 030°35'0 0.0
2017-Nov-24 00:57N 36°48' E 030°35'0 0.0
2017-Nov-24 00:09N 36°48' E 030°35'0 0.0
2017-Nov-23 23:57N 36°48' E 030°35'0 0.0
2017-Nov-23 23:03N 36°48' E 030°35'0 0.0
2017-Nov-23 22:57N 36°48' E 030°35'0 0.0
2017-Nov-23 22:27N 36°48' E 030°35'0 0.0
2017-Nov-23 21:57N 36°48' E 030°35'0 0.0
2017-Nov-23 21:27N 36°48' E 030°35'0 0.0
2017-Nov-23 21:00N 36°48' E 030°35'0 0.0
2017-Nov-23 20:30N 36°48' E 030°35'0 0.0
2017-Nov-23 19:51N 36°48' E 030°35'0 0.0
2017-Nov-23 19:27N 36°48' E 030°35'  
Track history (hours):
 
Tides and Currents Weather Stations Pressure Air Temp Water Temp Dewpoint Dewpoint Depression Visibility Wind Speed Wind Dir Waves Ship Positions

Fuat Reis I

Last reported at 2017-Dec-02 08:46 UTC. Time now 2017-Dec-14 08:16 UTC.
Position N 36°37' E 030°37'.
Warning: this ship's position is 11 days out of date.

Type: Fishing. MMSI: 271073040.

Date/timePositionNaut miles runAvg speedWind from/ knotsBaromVisibWave heightAir tempDewpointWater temp
2017-Dec-02 08:46N 36°37' E 030°37'0 1.1
2017-Dec-02 08:30N 36°38' E 030°37'1 2.1
2017-Dec-02 08:00N 36°38' E 030°36'1 2.3
2017-Dec-02 07:30N 36°39' E 030°36'2 3.5
2017-Dec-02 07:00N 36°41' E 030°37'4 7.8
2017-Dec-02 06:30N 36°45' E 030°36'3 6.5
2017-Dec-02 06:00N 36°48' E 030°35'9 0.6
2017-Dec-01 14:52N 36°46' E 030°46'1 2.3
2017-Dec-01 14:30N 36°45' E 030°46'2 3.4
2017-Dec-01 13:58N 36°43' E 030°45'1 1.3
2017-Dec-01 13:29N 36°43' E 030°46'0 0.6
2017-Dec-01 13:00N 36°43' E 030°46'1 2.0
2017-Dec-01 12:30N 36°44' E 030°46'1 2.1
2017-Dec-01 12:00N 36°45' E 030°45'1 2.2
2017-Dec-01 11:31N 36°46' E 030°45'1 2.2
2017-Dec-01 11:00N 36°47' E 030°46'1 2.2
2017-Dec-01 10:30N 36°47' E 030°47'2 3.0
2017-Dec-01 09:59N 36°49' E 030°48'1 1.8
2017-Dec-01 09:30N 36°48' E 030°47'0 0.8
2017-Dec-01 09:00N 36°48' E 030°47'1 2.1
2017-Dec-01 08:30N 36°47' E 030°47'1 2.2
2017-Dec-01 07:59N 36°46' E 030°47'1 2.2
2017-Dec-01 07:30N 36°45' E 030°47'1 3.0
2017-Dec-01 07:00N 36°44' E 030°47'0 0.6
2017-Dec-01 06:30N 36°43' E 030°47'0 0.5
2017-Dec-01 06:00N 36°44' E 030°47'1 2.2
2017-Dec-01 05:29N 36°45' E 030°47'1 2.2
2017-Dec-01 05:00N 36°46' E 030°47'1 2.1
2017-Dec-01 04:30N 36°47' E 030°47'2 3.5
2017-Dec-01 04:00N 36°49' E 030°47'4 7.3
2017-Dec-01 03:30N 36°49' E 030°42'4 8.0
2017-Dec-01 03:00N 36°49' E 030°37'2 4.2
2017-Dec-01 02:28N 36°48' E 030°35'0 0.0
2017-Dec-01 01:58N 36°48' E 030°35'0 0.0
2017-Dec-01 01:28N 36°48' E 030°35'0 0.0
2017-Dec-01 00:58N 36°48' E 030°35'0 0.0
2017-Dec-01 00:28N 36°48' E 030°35'0 0.0
2017-Nov-30 23:58N 36°48' E 030°35'0 0.0
2017-Nov-30 23:28N 36°48' E 030°35'0 0.0
2017-Nov-30 22:58N 36°48' E 030°35'0 0.0
2017-Nov-30 22:28N 36°48' E 030°35'0 0.0
2017-Nov-30 21:55N 36°48' E 030°35'0 0.0
2017-Nov-30 21:28N 36°48' E 030°35'0 0.0
2017-Nov-30 20:58N 36°48' E 030°35'0 0.0
2017-Nov-30 20:25N 36°48' E 030°35'0 0.0
2017-Nov-30 19:58N 36°48' E 030°35'0 0.0
2017-Nov-30 19:25N 36°48' E 030°35'0 0.0
2017-Nov-30 18:58N 36°48' E 030°35'0 0.2
2017-Nov-30 18:30N 36°48' E 030°35'4 7.8
2017-Nov-30 18:00N 36°47' E 030°39'4 8.3
2017-Nov-30 17:30N 36°45' E 030°44'2 4.8
2017-Nov-30 17:00N 36°47' E 030°46'0 0.4
2017-Nov-30 16:30N 36°47' E 030°47'1 2.3
2017-Nov-30 16:00N 36°48' E 030°47'0 0.6
2017-Nov-30 15:30N 36°48' E 030°48'1 1.2
2017-Nov-30 15:00N 36°48' E 030°47'1 2.1
2017-Nov-30 14:30N 36°47' E 030°46'1 2.0
2017-Nov-30 14:00N 36°47' E 030°45'1 2.3
2017-Nov-30 13:30N 36°46' E 030°44'1 2.1
2017-Nov-30 13:00N 36°45' E 030°45'1 2.2
2017-Nov-30 12:30N 36°44' E 030°46'2 3.3
2017-Nov-30 11:56N 36°43' E 030°48'1 3.1
2017-Nov-30 11:30N 36°43' E 030°46'0 0.7
2017-Nov-30 11:00N 36°43' E 030°47'1 2.1
2017-Nov-30 10:30N 36°44' E 030°46'1 2.0
2017-Nov-30 10:00N 36°44' E 030°44'1 1.9
2017-Nov-30 09:30N 36°45' E 030°44'1 2.2
2017-Nov-30 09:00N 36°46' E 030°44'1 2.2
2017-Nov-30 08:30N 36°47' E 030°45'1 2.6
2017-Nov-30 08:00N 36°48' E 030°46'1 2.1
2017-Nov-30 07:30N 36°48' E 030°47'1 2.8
2017-Nov-30 06:59N 36°47' E 030°49'2 4.5
2017-Nov-30 06:30N 36°47' E 030°47'0 0.4
2017-Nov-30 06:00N 36°47' E 030°47'1 2.4
2017-Nov-30 05:30N 36°48' E 030°48'1 2.7
2017-Nov-30 05:00N 36°48' E 030°50'1 2.3
2017-Nov-30 04:30N 36°48' E 030°51'1 2.3
2017-Nov-30 04:00N 36°49' E 030°52'1 2.3
2017-Nov-30 03:30N 36°48' E 030°54'1 2.3
2017-Nov-30 02:58N 36°48' E 030°55'1 2.3
2017-Nov-30 02:29N 36°48' E 030°57'18 0.5
2017-Nov-28 16:21N 36°48' E 030°35'0 0.0
2017-Nov-28 15:45N 36°48' E 030°35'0 0.0
2017-Nov-28 15:00N 36°48' E 030°35'0 0.0
2017-Nov-28 14:30N 36°48' E 030°35'0 0.0
2017-Nov-28 13:57N 36°48' E 030°35'0 0.0
2017-Nov-28 13:30N 36°48' E 030°35'0 0.0
2017-Nov-28 13:00N 36°48' E 030°35'0 0.0
2017-Nov-28 12:30N 36°48' E 030°35'0 0.0
2017-Nov-28 12:00N 36°48' E 030°35'0 0.0
2017-Nov-28 11:30N 36°48' E 030°35'0 0.0
2017-Nov-28 11:00N 36°48' E 030°35'0 0.0
2017-Nov-28 10:30N 36°48' E 030°35'0 0.0
2017-Nov-28 10:00N 36°48' E 030°35'0 0.0
2017-Nov-28 09:27N 36°48' E 030°35'0 0.0
2017-Nov-28 08:54N 36°48' E 030°35'0 0.0
2017-Nov-28 08:30N 36°48' E 030°35'0 0.0
2017-Nov-28 08:00N 36°48' E 030°35'0 0.0
2017-Nov-28 07:30N 36°48' E 030°35'0 0.0
2017-Nov-28 06:54N 36°48' E 030°35'0 0.0
2017-Nov-28 06:30N 36°48' E 030°35'0 0.0
2017-Nov-28 05:54N 36°48' E 030°35'0 0.0
2017-Nov-28 05:30N 36°48' E 030°35'0 0.0
2017-Nov-28 04:30N 36°48' E 030°35'0 0.0
2017-Nov-28 04:00N 36°48' E 030°35'0 0.0
2017-Nov-28 03:30N 36°48' E 030°35'0 0.0
2017-Nov-28 03:00N 36°48' E 030°35'0 0.0
2017-Nov-28 02:30N 36°48' E 030°35'0 0.0
2017-Nov-28 01:57N 36°48' E 030°35'0 0.0
2017-Nov-28 01:27N 36°48' E 030°35'0 0.0
2017-Nov-28 01:00N 36°48' E 030°35'0 0.0
2017-Nov-28 00:27N 36°48' E 030°35'0 0.0
2017-Nov-28 00:00N 36°48' E 030°35'0 0.0
2017-Nov-27 23:30N 36°48' E 030°35'0 0.0
2017-Nov-27 23:00N 36°48' E 030°35'0 0.0
2017-Nov-27 22:30N 36°48' E 030°35'0 0.0
2017-Nov-27 21:54N 36°48' E 030°35'0 0.0
2017-Nov-27 21:27N 36°48' E 030°35'0 0.0
2017-Nov-27 21:00N 36°48' E 030°35'0 0.0
2017-Nov-27 20:24N 36°48' E 030°35'0 0.0
2017-Nov-27 20:00N 36°48' E 030°35'0 0.0
2017-Nov-27 19:27N 36°48' E 030°35'0 0.0
2017-Nov-27 18:57N 36°48' E 030°35'0 0.0
2017-Nov-27 18:27N 36°48' E 030°35'13 0.3
2017-Nov-25 15:04N 36°47' E 030°51'0 2.5
2017-Nov-25 14:54N 36°48' E 030°51'1 2.5
2017-Nov-25 14:30N 36°48' E 030°50'2 3.9
2017-Nov-25 14:00N 36°47' E 030°47'2 3.2
2017-Nov-25 13:30N 36°47' E 030°46'0 0.7
2017-Nov-25 13:00N 36°47' E 030°45'1 1.2
2017-Nov-25 12:30N 36°47' E 030°44'1 1.9
2017-Nov-25 12:00N 36°46' E 030°44'1 2.1
2017-Nov-25 11:30N 36°45' E 030°45'1 2.1
2017-Nov-25 11:00N 36°44' E 030°46'2 3.4
2017-Nov-25 10:16N 36°43' E 030°48'0 0.7
2017-Nov-25 10:00N 36°43' E 030°48'1 1.1
2017-Nov-25 09:30N 36°43' E 030°47'1 2.2
2017-Nov-25 09:00N 36°44' E 030°46'1 2.2
2017-Nov-25 08:30N 36°44' E 030°45'1 2.2
2017-Nov-25 08:00N 36°45' E 030°44'1 2.2
2017-Nov-25 07:30N 36°46' E 030°45'1 2.2
2017-Nov-25 07:00N 36°47' E 030°46'1 2.9
2017-Nov-25 06:30N 36°48' E 030°46'1 2.8
2017-Nov-25 06:00N 36°48' E 030°45'4 8.2
2017-Nov-25 05:30N 36°49' E 030°39'4 7.7
2017-Nov-25 05:00N 36°48' E 030°35'0 0.0
2017-Nov-25 04:30N 36°48' E 030°35'0 0.0
2017-Nov-25 04:00N 36°48' E 030°35'0 0.0
2017-Nov-25 03:30N 36°48' E 030°35'0 0.0
2017-Nov-25 03:00N 36°48' E 030°35'0 0.0
2017-Nov-25 02:30N 36°48' E 030°35'0 0.0
2017-Nov-25 02:00N 36°48' E 030°35'0 0.0
2017-Nov-25 01:30N 36°48' E 030°35'0 0.0
2017-Nov-25 01:00N 36°48' E 030°35'0 0.0
2017-Nov-25 00:30N 36°48' E 030°35'0 0.0
2017-Nov-25 00:00N 36°48' E 030°35'0 0.0
2017-Nov-24 23:30N 36°48' E 030°35'3 6.5
2017-Nov-24 23:00N 36°48' E 030°39'4 7.1
2017-Nov-24 22:30N 36°48' E 030°43'4 7.0
2017-Nov-24 22:00N 36°48' E 030°48'1 1.5
2017-Nov-24 21:30N 36°48' E 030°48'1 2.6
2017-Nov-24 21:00N 36°49' E 030°50'1 2.6
2017-Nov-24 20:30N 36°49' E 030°52'1 2.5
2017-Nov-24 20:00N 36°49' E 030°53'1 2.5
2017-Nov-24 19:30N 36°49' E 030°55'1 2.5
2017-Nov-24 18:54N 36°48' E 030°57'1 0.5
2017-Nov-24 16:05N 36°48' E 030°58'0 2.6
2017-Nov-24 16:00N 36°48' E 030°58'2 2.3
2017-Nov-24 14:57N 36°47' E 030°55'2 2.6
2017-Nov-24 14:20N 36°47' E 030°53'1 2.6
2017-Nov-24 14:00N 36°47' E 030°52'1 2.6
2017-Nov-24 13:30N 36°47' E 030°50'1 2.5
2017-Nov-24 13:00N 36°48' E 030°49'1 2.7
2017-Nov-24 12:30N 36°48' E 030°47'0 0.3
2017-Nov-24 12:00N 36°48' E 030°47'1 1.9
2017-Nov-24 11:30N 36°47' E 030°47'1 2.1
2017-Nov-24 11:00N 36°47' E 030°45'1 2.3
2017-Nov-24 10:30N 36°46' E 030°44'1 2.1
2017-Nov-24 10:00N 36°45' E 030°45'1 2.1
2017-Nov-24 09:31N 36°44' E 030°46'2 3.7
2017-Nov-24 08:57N 36°43' E 030°48'1 2.4
2017-Nov-24 08:30N 36°43' E 030°46'1 1.1
2017-Nov-24 08:00N 36°43' E 030°47'1 2.0
2017-Nov-24 07:29N 36°44' E 030°46'1 2.2
2017-Nov-24 07:00N 36°44' E 030°45'1 2.2
2017-Nov-24 06:30N 36°45' E 030°45'1 2.3
2017-Nov-24 06:00N 36°46' E 030°45'1 2.2
2017-Nov-24 05:30N 36°47' E 030°46'1 2.5
2017-Nov-24 05:00N 36°49' E 030°46'4 8.0
2017-Nov-24 04:30N 36°48' E 030°41'4 7.9
2017-Nov-24 04:00N 36°48' E 030°36'1 2.3
2017-Nov-24 03:29N 36°48' E 030°35'0 0.0
2017-Nov-24 02:59N 36°48' E 030°35'0 0.0
2017-Nov-24 02:29N 36°48' E 030°35'0 0.0
2017-Nov-24 02:00N 36°48' E 030°35'0 0.0
2017-Nov-24 00:57N 36°48' E 030°35'0 0.0
2017-Nov-24 00:09N 36°48' E 030°35'0 0.0
2017-Nov-23 23:57N 36°48' E 030°35'0 0.0
2017-Nov-23 23:03N 36°48' E 030°35'0 0.0
2017-Nov-23 22:57N 36°48' E 030°35'0 0.0
2017-Nov-23 22:27N 36°48' E 030°35'0 0.0
2017-Nov-23 21:57N 36°48' E 030°35'0 0.0
2017-Nov-23 21:27N 36°48' E 030°35'0 0.0
2017-Nov-23 21:00N 36°48' E 030°35'0 0.0
2017-Nov-23 20:30N 36°48' E 030°35'0 0.0
2017-Nov-23 19:51N 36°48' E 030°35'0 0.0
2017-Nov-23 19:27N 36°48' E 030°35'  

Dump ship's entire track history